Impacts TAF Board
For situational awareness. Not to be used for flight planning purposes.
IDs:

KDTW - Detroit Metro/Wayne, MI, US

Issued at 1505 UTC 01 Mar 2021
Updated at 1555 UTC 01 Mar 2021
Potential Impact None Slight Moderate High
Time1453Z 01/16Z 01/17Z 01/18Z 01/19Z 01/20Z 01/21Z 01/22Z 01/23Z 02/00Z 02/01Z 02/02Z 02/03Z 02/04Z>>
Type OBS PRVL PRVL PRVL PRVL PRVL PRVL PRVL PRVL PRVL PRVL PRVL PRVL PRVL
VIS 10 >6 >6 >6 >6 >6 >6 >6 >6 >6 >6 >6 >6 >6
CIG -- 35 35 40 40 40 40 40 -- -- -- -- -- --
Cover SCT BKN BKN BKN BKN BKN BKN BKN SCT SCT SCT SCT SKC SKC
FltCat VFR VFR VFR VFR VFR VFR VFR VFR VFR VFR VFR VFR VFR VFR
WX -- -- -- -- -- -- -- -- -- -- -- -- -- --
WDir 280 300 300 320 320 320 320 320 280 280 280 280 280 280
WSpd 16 16 16 16 16 16 16 16 10 10 10 10 7 7
WGst 24 26 26 26 26 26 26 26 20 20 20 20 -- --
Raw TAF
KDTW 011505Z 0115/0218 29015G25KT P6SM SCT035
  FM011600 30016G26KT P6SM BKN035
  FM011800 32016G26KT P6SM BKN040 BKN100
  FM012300 28010G20KT P6SM SCT040
  FM020300 28007KT P6SM SKC


Raw METAR
KDTW 011453Z COR 28016G24KT 10SM SCT035 02/M07 A2999 RMK AO2 SLP158 T00221072 51024
KDTW 011353Z 31014G26KT 10SM FEW040 SCT220 02/M08 A2998 RMK AO2 PK WND 29026/1344 SLP156 T00171078
KDTW 011253Z 29011G23KT 10SM SCT040 BKN085 BKN200 01/M07 A2996 RMK AO2 SLP148 T00061072

METAR Board
Radar Display
Forecast Discussion
For situational awareness. Not to be used for flight planning purposes.